sensor_id;sensor_type;location;lat;lon;timestamp;P1;durP1;ratioP1;P2;durP2;ratioP2
819;SDS011;392;48.838;2.322;2022-10-15T00:01:10;9.37;;;8.50;;
819;SDS011;392;48.838;2.322;2022-10-15T00:03:41;7.70;;;6.90;;
819;SDS011;392;48.838;2.322;2022-10-15T00:06:10;8.40;;;7.60;;
819;SDS011;392;48.838;2.322;2022-10-15T00:08:40;7.20;;;6.60;;
819;SDS011;392;48.838;2.322;2022-10-15T00:11:10;7.93;;;7.20;;
819;SDS011;392;48.838;2.322;2022-10-15T00:13:39;8.80;;;7.90;;
819;SDS011;392;48.838;2.322;2022-10-15T00:16:08;8.30;;;7.50;;
819;SDS011;392;48.838;2.322;2022-10-15T00:18:39;10.33;;;8.43;;
819;SDS011;392;48.838;2.322;2022-10-15T00:21:09;9.00;;;8.10;;
819;SDS011;392;48.838;2.322;2022-10-15T00:23:39;7.97;;;7.30;;
819;SDS011;392;48.838;2.322;2022-10-15T00:26:09;7.90;;;7.20;;
819;SDS011;392;48.838;2.322;2022-10-15T00:28:39;8.13;;;7.40;;
819;SDS011;392;48.838;2.322;2022-10-15T00:31:07;8.27;;;7.50;;
819;SDS011;392;48.838;2.322;2022-10-15T00:33:37;8.80;;;7.43;;
819;SDS011;392;48.838;2.322;2022-10-15T00:36:07;8.07;;;7.30;;
819;SDS011;392;48.838;2.322;2022-10-15T00:38:38;8.40;;;7.50;;
819;SDS011;392;48.838;2.322;2022-10-15T00:41:07;8.50;;;7.70;;
819;SDS011;392;48.838;2.322;2022-10-15T00:43:40;8.40;;;7.60;;
819;SDS011;392;48.838;2.322;2022-10-15T00:46:15;7.53;;;6.83;;
819;SDS011;392;48.838;2.322;2022-10-15T00:48:48;7.20;;;6.50;;
819;SDS011;392;48.838;2.322;2022-10-15T00:51:22;7.43;;;6.83;;
819;SDS011;392;48.838;2.322;2022-10-15T00:53:53;7.43;;;6.67;;
819;SDS011;392;48.838;2.322;2022-10-15T00:56:21;7.50;;;6.40;;
819;SDS011;392;48.838;2.322;2022-10-15T00:58:51;7.57;;;6.27;;
819;SDS011;392;48.838;2.322;2022-10-15T01:01:19;7.83;;;7.13;;
819;SDS011;392;48.838;2.322;2022-10-15T01:03:47;7.47;;;6.77;;
819;SDS011;392;48.838;2.322;2022-10-15T01:06:15;7.87;;;6.60;;
819;SDS011;392;48.838;2.322;2022-10-15T01:08:46;7.23;;;6.53;;
819;SDS011;392;48.838;2.322;2022-10-15T01:11:17;6.73;;;6.13;;
819;SDS011;392;48.838;2.322;2022-10-15T01:13:59;6.73;;;6.13;;
819;SDS011;392;48.838;2.322;2022-10-15T01:16:37;7.60;;;6.40;;
819;SDS011;392;48.838;2.322;2022-10-15T01:19:13;7.17;;;6.57;;
819;SDS011;392;48.838;2.322;2022-10-15T01:21:58;5.97;;;5.47;;
819;SDS011;392;48.838;2.322;2022-10-15T01:24:40;5.40;;;5.00;;
819;SDS011;392;48.838;2.322;2022-10-15T01:30:14;5.80;;;5.20;;
819;SDS011;392;48.838;2.322;2022-10-15T01:32:56;5.87;;;5.37;;
819;SDS011;392;48.838;2.322;2022-10-15T01:35:45;6.57;;;6.00;;
819;SDS011;392;48.838;2.322;2022-10-15T01:38:19;6.60;;;6.00;;
819;SDS011;392;48.838;2.322;2022-10-15T01:40:56;6.73;;;6.03;;
819;SDS011;392;48.838;2.322;2022-10-15T01:43:28;7.07;;;6.37;;
819;SDS011;392;48.838;2.322;2022-10-15T01:46:31;6.27;;;5.67;;
819;SDS011;392;48.838;2.322;2022-10-15T01:49:07;6.53;;;5.97;;
819;SDS011;392;48.838;2.322;2022-10-15T01:51:37;7.10;;;6.30;;
819;SDS011;392;48.838;2.322;2022-10-15T01:54:10;6.13;;;5.63;;
819;SDS011;392;48.838;2.322;2022-10-15T01:56:42;7.50;;;6.80;;
819;SDS011;392;48.838;2.322;2022-10-15T01:59:16;6.70;;;6.10;;
819;SDS011;392;48.838;2.322;2022-10-15T02:01:49;7.50;;;6.80;;
819;SDS011;392;48.838;2.322;2022-10-15T02:04:18;7.27;;;6.50;;
819;SDS011;392;48.838;2.322;2022-10-15T02:06:48;7.00;;;6.30;;
819;SDS011;392;48.838;2.322;2022-10-15T02:09:23;6.63;;;6.03;;
819;SDS011;392;48.838;2.322;2022-10-15T02:12:03;6.20;;;5.60;;
819;SDS011;392;48.838;2.322;2022-10-15T02:14:43;6.43;;;5.87;;
819;SDS011;392;48.838;2.322;2022-10-15T02:17:19;6.63;;;6.00;;
819;SDS011;392;48.838;2.322;2022-10-15T02:19:55;6.93;;;6.30;;
819;SDS011;392;48.838;2.322;2022-10-15T02:22:31;7.90;;;6.60;;
819;SDS011;392;48.838;2.322;2022-10-15T02:25:05;7.07;;;6.37;;
819;SDS011;392;48.838;2.322;2022-10-15T02:27:40;6.67;;;6.07;;
819;SDS011;392;48.838;2.322;2022-10-15T02:30:09;7.60;;;6.70;;
819;SDS011;392;48.838;2.322;2022-10-15T02:32:41;7.00;;;6.40;;
819;SDS011;392;48.838;2.322;2022-10-15T02:35:11;7.17;;;6.53;;
819;SDS011;392;48.838;2.322;2022-10-15T02:37:42;6.90;;;6.20;;
819;SDS011;392;48.838;2.322;2022-10-15T02:40:17;7.40;;;6.30;;
819;SDS011;392;48.838;2.322;2022-10-15T02:42:47;7.50;;;6.10;;
819;SDS011;392;48.838;2.322;2022-10-15T02:45:15;6.50;;;5.90;;
819;SDS011;392;48.838;2.322;2022-10-15T02:47:44;5.80;;;5.30;;
819;SDS011;392;48.838;2.322;2022-10-15T02:50:12;5.60;;;5.10;;
819;SDS011;392;48.838;2.322;2022-10-15T02:52:39;6.03;;;5.53;;
819;SDS011;392;48.838;2.322;2022-10-15T02:55:07;5.37;;;4.97;;
819;SDS011;392;48.838;2.322;2022-10-15T02:57:35;5.13;;;4.73;;
819;SDS011;392;48.838;2.322;2022-10-15T03:00:03;5.20;;;4.80;;
819;SDS011;392;48.838;2.322;2022-10-15T03:02:33;5.93;;;4.70;;
819;SDS011;392;48.838;2.322;2022-10-15T03:05:03;4.70;;;4.30;;
819;SDS011;392;48.838;2.322;2022-10-15T03:07:30;5.07;;;4.67;;
819;SDS011;392;48.838;2.322;2022-10-15T03:09:58;4.60;;;4.20;;
819;SDS011;392;48.838;2.322;2022-10-15T03:12:26;4.40;;;4.10;;
819;SDS011;392;48.838;2.322;2022-10-15T03:14:53;3.90;;;3.63;;
819;SDS011;392;48.838;2.322;2022-10-15T03:17:21;3.60;;;3.30;;
819;SDS011;392;48.838;2.322;2022-10-15T03:19:48;5.23;;;3.70;;
819;SDS011;392;48.838;2.322;2022-10-15T03:22:17;4.43;;;3.80;;
819;SDS011;392;48.838;2.322;2022-10-15T03:24:51;3.47;;;3.17;;
819;SDS011;392;48.838;2.322;2022-10-15T03:27:23;4.10;;;2.80;;
819;SDS011;392;48.838;2.322;2022-10-15T03:29:51;3.40;;;3.10;;
819;SDS011;392;48.838;2.322;2022-10-15T03:32:21;2.73;;;2.53;;
819;SDS011;392;48.838;2.322;2022-10-15T03:34:49;3.27;;;3.07;;
819;SDS011;392;48.838;2.322;2022-10-15T03:37:19;2.83;;;2.63;;
819;SDS011;392;48.838;2.322;2022-10-15T03:39:46;2.40;;;2.20;;
819;SDS011;392;48.838;2.322;2022-10-15T03:42:16;2.70;;;2.47;;
819;SDS011;392;48.838;2.322;2022-10-15T03:44:44;3.40;;;2.40;;
819;SDS011;392;48.838;2.322;2022-10-15T03:47:15;2.77;;;2.47;;
819;SDS011;392;48.838;2.322;2022-10-15T03:49:44;2.90;;;2.70;;
819;SDS011;392;48.838;2.322;2022-10-15T03:52:12;2.50;;;2.40;;
819;SDS011;392;48.838;2.322;2022-10-15T03:54:42;2.67;;;2.47;;
819;SDS011;392;48.838;2.322;2022-10-15T03:57:10;4.50;;;2.57;;
819;SDS011;392;48.838;2.322;2022-10-15T03:59:43;2.20;;;2.00;;
819;SDS011;392;48.838;2.322;2022-10-15T04:02:12;3.27;;;2.03;;
819;SDS011;392;48.838;2.322;2022-10-15T04:04:40;2.53;;;2.33;;
819;SDS011;392;48.838;2.322;2022-10-15T04:07:07;1.90;;;1.70;;
819;SDS011;392;48.838;2.322;2022-10-15T04:09:35;2.10;;;1.90;;
819;SDS011;392;48.838;2.322;2022-10-15T04:12:21;2.00;;;1.80;;
819;SDS011;392;48.838;2.322;2022-10-15T04:14:48;2.47;;;2.27;;
819;SDS011;392;48.838;2.322;2022-10-15T04:17:16;2.17;;;2.07;;
819;SDS011;392;48.838;2.322;2022-10-15T04:19:44;1.77;;;1.67;;
819;SDS011;392;48.838;2.322;2022-10-15T04:22:13;2.30;;;2.10;;
819;SDS011;392;48.838;2.322;2022-10-15T04:24:46;1.77;;;1.67;;
819;SDS011;392;48.838;2.322;2022-10-15T04:27:25;1.80;;;1.70;;
819;SDS011;392;48.838;2.322;2022-10-15T04:29:59;4.87;;;2.10;;
819;SDS011;392;48.838;2.322;2022-10-15T04:32:26;2.10;;;2.00;;
819;SDS011;392;48.838;2.322;2022-10-15T04:34:54;4.03;;;2.50;;
819;SDS011;392;48.838;2.322;2022-10-15T04:37:34;2.80;;;2.00;;
819;SDS011;392;48.838;2.322;2022-10-15T04:40:02;2.30;;;2.10;;
819;SDS011;392;48.838;2.322;2022-10-15T04:42:32;2.47;;;2.27;;
819;SDS011;392;48.838;2.322;2022-10-15T04:44:59;2.83;;;2.30;;
819;SDS011;392;48.838;2.322;2022-10-15T04:47:27;2.40;;;2.20;;
819;SDS011;392;48.838;2.322;2022-10-15T04:50:05;1.90;;;1.80;;
819;SDS011;392;48.838;2.322;2022-10-15T04:52:53;2.03;;;1.93;;
819;SDS011;392;48.838;2.322;2022-10-15T04:55:22;3.30;;;2.40;;
819;SDS011;392;48.838;2.322;2022-10-15T04:57:56;4.10;;;2.60;;
819;SDS011;392;48.838;2.322;2022-10-15T05:00:27;2.07;;;1.97;;
819;SDS011;392;48.838;2.322;2022-10-15T05:03:30;2.10;;;2.00;;
819;SDS011;392;48.838;2.322;2022-10-15T05:06:03;1.77;;;1.67;;
819;SDS011;392;48.838;2.322;2022-10-15T05:08:33;2.73;;;2.00;;
819;SDS011;392;48.838;2.322;2022-10-15T05:11:13;2.57;;;1.80;;
819;SDS011;392;48.838;2.322;2022-10-15T05:13:44;2.03;;;1.80;;
819;SDS011;392;48.838;2.322;2022-10-15T05:16:13;1.90;;;1.50;;
819;SDS011;392;48.838;2.322;2022-10-15T05:18:44;1.97;;;1.83;;
819;SDS011;392;48.838;2.322;2022-10-15T05:21:14;3.03;;;1.87;;
819;SDS011;392;48.838;2.322;2022-10-15T05:23:45;2.03;;;1.80;;
819;SDS011;392;48.838;2.322;2022-10-15T05:26:23;1.40;;;1.30;;
819;SDS011;392;48.838;2.322;2022-10-15T05:28:54;2.73;;;1.80;;
819;SDS011;392;48.838;2.322;2022-10-15T05:31:26;1.97;;;1.77;;
819;SDS011;392;48.838;2.322;2022-10-15T05:34:31;2.00;;;1.60;;
819;SDS011;392;48.838;2.322;2022-10-15T05:37:03;3.03;;;2.13;;
819;SDS011;392;48.838;2.322;2022-10-15T05:39:30;1.93;;;1.70;;
819;SDS011;392;48.838;2.322;2022-10-15T05:41:58;2.73;;;1.60;;
819;SDS011;392;48.838;2.322;2022-10-15T05:44:36;3.10;;;2.40;;
819;SDS011;392;48.838;2.322;2022-10-15T05:47:03;2.17;;;1.90;;
819;SDS011;392;48.838;2.322;2022-10-15T05:49:36;1.83;;;1.73;;
819;SDS011;392;48.838;2.322;2022-10-15T05:52:09;2.03;;;1.73;;
819;SDS011;392;48.838;2.322;2022-10-15T05:54:59;2.47;;;2.00;;
819;SDS011;392;48.838;2.322;2022-10-15T05:57:27;3.53;;;2.40;;
819;SDS011;392;48.838;2.322;2022-10-15T05:59:56;2.73;;;2.50;;
819;SDS011;392;48.838;2.322;2022-10-15T06:02:23;2.70;;;2.50;;
819;SDS011;392;48.838;2.322;2022-10-15T06:04:50;4.17;;;3.00;;
819;SDS011;392;48.838;2.322;2022-10-15T06:07:17;2.87;;;2.30;;
819;SDS011;392;48.838;2.322;2022-10-15T06:09:45;4.10;;;2.50;;
819;SDS011;392;48.838;2.322;2022-10-15T06:12:14;4.40;;;2.63;;
819;SDS011;392;48.838;2.322;2022-10-15T06:14:41;3.23;;;2.93;;
819;SDS011;392;48.838;2.322;2022-10-15T06:17:10;5.23;;;2.00;;
819;SDS011;392;48.838;2.322;2022-10-15T06:19:40;3.33;;;2.33;;
819;SDS011;392;48.838;2.322;2022-10-15T06:22:08;3.43;;;2.27;;
819;SDS011;392;48.838;2.322;2022-10-15T06:24:36;2.47;;;2.27;;
819;SDS011;392;48.838;2.322;2022-10-15T06:27:06;2.40;;;2.20;;
819;SDS011;392;48.838;2.322;2022-10-15T06:29:34;4.20;;;2.07;;
819;SDS011;392;48.838;2.322;2022-10-15T06:32:01;3.60;;;2.17;;
819;SDS011;392;48.838;2.322;2022-10-15T06:34:30;2.87;;;1.77;;
819;SDS011;392;48.838;2.322;2022-10-15T06:36:57;2.33;;;1.90;;
819;SDS011;392;48.838;2.322;2022-10-15T06:39:25;2.57;;;1.40;;
819;SDS011;392;48.838;2.322;2022-10-15T06:41:52;1.80;;;1.70;;
819;SDS011;392;48.838;2.322;2022-10-15T06:44:19;2.20;;;1.70;;
819;SDS011;392;48.838;2.322;2022-10-15T06:46:47;2.40;;;1.93;;
819;SDS011;392;48.838;2.322;2022-10-15T06:49:14;2.30;;;2.10;;
819;SDS011;392;48.838;2.322;2022-10-15T06:51:42;2.07;;;1.87;;
819;SDS011;392;48.838;2.322;2022-10-15T06:54:10;1.83;;;1.50;;
819;SDS011;392;48.838;2.322;2022-10-15T06:56:37;1.87;;;1.77;;
819;SDS011;392;48.838;2.322;2022-10-15T06:59:05;2.13;;;1.93;;
819;SDS011;392;48.838;2.322;2022-10-15T07:01:32;2.13;;;1.60;;
819;SDS011;392;48.838;2.322;2022-10-15T07:04:00;8.00;;;2.03;;
819;SDS011;392;48.838;2.322;2022-10-15T07:06:27;2.00;;;1.60;;
819;SDS011;392;48.838;2.322;2022-10-15T07:08:55;1.60;;;1.50;;
819;SDS011;392;48.838;2.322;2022-10-15T07:11:23;1.90;;;1.73;;
819;SDS011;392;48.838;2.322;2022-10-15T07:13:50;2.37;;;1.90;;
819;SDS011;392;48.838;2.322;2022-10-15T07:16:17;1.70;;;1.60;;
819;SDS011;392;48.838;2.322;2022-10-15T07:18:46;1.90;;;1.80;;
819;SDS011;392;48.838;2.322;2022-10-15T07:21:14;1.90;;;1.70;;
819;SDS011;392;48.838;2.322;2022-10-15T07:23:41;1.73;;;1.63;;
819;SDS011;392;48.838;2.322;2022-10-15T07:26:10;2.17;;;1.70;;
819;SDS011;392;48.838;2.322;2022-10-15T07:28:37;1.70;;;1.60;;
819;SDS011;392;48.838;2.322;2022-10-15T07:31:05;3.10;;;1.80;;
819;SDS011;392;48.838;2.322;2022-10-15T07:33:33;1.80;;;1.70;;
819;SDS011;392;48.838;2.322;2022-10-15T07:36:02;2.73;;;1.10;;
819;SDS011;392;48.838;2.322;2022-10-15T07:38:30;3.70;;;1.50;;
819;SDS011;392;48.838;2.322;2022-10-15T07:40:58;1.40;;;1.30;;
819;SDS011;392;48.838;2.322;2022-10-15T07:43:32;1.80;;;1.30;;
819;SDS011;392;48.838;2.322;2022-10-15T07:46:01;3.30;;;1.60;;
819;SDS011;392;48.838;2.322;2022-10-15T07:48:30;1.50;;;1.00;;
819;SDS011;392;48.838;2.322;2022-10-15T07:50:58;1.33;;;1.23;;
819;SDS011;392;48.838;2.322;2022-10-15T07:53:29;1.10;;;1.10;;
819;SDS011;392;48.838;2.322;2022-10-15T07:55:58;0.83;;;0.83;;
819;SDS011;392;48.838;2.322;2022-10-15T07:58:29;0.90;;;0.90;;
819;SDS011;392;48.838;2.322;2022-10-15T08:00:59;1.10;;;1.00;;
819;SDS011;392;48.838;2.322;2022-10-15T08:03:26;1.10;;;1.10;;
819;SDS011;392;48.838;2.322;2022-10-15T08:05:55;1.50;;;1.27;;
819;SDS011;392;48.838;2.322;2022-10-15T08:08:22;1.80;;;1.30;;
819;SDS011;392;48.838;2.322;2022-10-15T08:10:50;0.70;;;0.70;;
819;SDS011;392;48.838;2.322;2022-10-15T08:13:17;0.90;;;0.90;;
819;SDS011;392;48.838;2.322;2022-10-15T08:15:50;1.10;;;1.00;;
819;SDS011;392;48.838;2.322;2022-10-15T08:18:17;1.37;;;0.80;;
819;SDS011;392;48.838;2.322;2022-10-15T08:20:45;1.17;;;0.80;;
819;SDS011;392;48.838;2.322;2022-10-15T08:23:12;0.83;;;0.80;;
819;SDS011;392;48.838;2.322;2022-10-15T08:25:42;1.33;;;1.23;;
819;SDS011;392;48.838;2.322;2022-10-15T08:28:11;0.97;;;0.80;;
819;SDS011;392;48.838;2.322;2022-10-15T08:30:38;1.80;;;1.70;;
819;SDS011;392;48.838;2.322;2022-10-15T08:33:11;1.20;;;1.10;;
819;SDS011;392;48.838;2.322;2022-10-15T08:35:39;1.10;;;1.00;;
819;SDS011;392;48.838;2.322;2022-10-15T08:38:08;1.00;;;1.00;;
819;SDS011;392;48.838;2.322;2022-10-15T08:40:36;1.17;;;1.17;;
819;SDS011;392;48.838;2.322;2022-10-15T08:43:05;1.10;;;1.00;;
819;SDS011;392;48.838;2.322;2022-10-15T08:45:33;1.43;;;1.17;;
819;SDS011;392;48.838;2.322;2022-10-15T08:48:10;2.10;;;1.20;;
819;SDS011;392;48.838;2.322;2022-10-15T08:50:46;1.23;;;1.17;;
819;SDS011;392;48.838;2.322;2022-10-15T08:53:21;1.93;;;1.30;;
819;SDS011;392;48.838;2.322;2022-10-15T08:55:53;2.53;;;1.33;;
819;SDS011;392;48.838;2.322;2022-10-15T08:58:26;1.30;;;1.20;;
819;SDS011;392;48.838;2.322;2022-10-15T09:01:12;1.00;;;1.00;;
819;SDS011;392;48.838;2.322;2022-10-15T09:03:50;1.20;;;1.10;;
819;SDS011;392;48.838;2.322;2022-10-15T09:06:27;2.30;;;1.20;;
819;SDS011;392;48.838;2.322;2022-10-15T09:09:01;1.30;;;1.20;;
819;SDS011;392;48.838;2.322;2022-10-15T09:11:39;1.23;;;1.23;;
819;SDS011;392;48.838;2.322;2022-10-15T09:14:24;1.83;;;1.40;;
819;SDS011;392;48.838;2.322;2022-10-15T09:16:56;1.27;;;1.17;;
819;SDS011;392;48.838;2.322;2022-10-15T09:19:33;1.60;;;1.50;;
819;SDS011;392;48.838;2.322;2022-10-15T09:22:07;1.40;;;1.30;;
819;SDS011;392;48.838;2.322;2022-10-15T09:24:38;1.30;;;1.20;;
819;SDS011;392;48.838;2.322;2022-10-15T09:27:07;1.53;;;1.33;;
819;SDS011;392;48.838;2.322;2022-10-15T09:29:40;1.20;;;1.10;;
819;SDS011;392;48.838;2.322;2022-10-15T09:32:15;1.37;;;1.33;;
819;SDS011;392;48.838;2.322;2022-10-15T09:34:50;1.53;;;1.27;;
819;SDS011;392;48.838;2.322;2022-10-15T09:37:25;1.50;;;1.40;;
819;SDS011;392;48.838;2.322;2022-10-15T09:40:01;1.60;;;1.50;;
819;SDS011;392;48.838;2.322;2022-10-15T09:42:46;2.10;;;1.63;;
819;SDS011;392;48.838;2.322;2022-10-15T09:45:16;1.77;;;1.67;;
819;SDS011;392;48.838;2.322;2022-10-15T09:47:44;1.50;;;1.40;;
819;SDS011;392;48.838;2.322;2022-10-15T09:50:13;2.03;;;1.90;;
819;SDS011;392;48.838;2.322;2022-10-15T09:52:44;1.50;;;1.40;;
819;SDS011;392;48.838;2.322;2022-10-15T09:55:36;1.37;;;1.10;;
819;SDS011;392;48.838;2.322;2022-10-15T09:58:10;1.37;;;0.90;;
819;SDS011;392;48.838;2.322;2022-10-15T10:00:59;1.87;;;1.00;;
819;SDS011;392;48.838;2.322;2022-10-15T10:03:34;2.17;;;1.97;;
819;SDS011;392;48.838;2.322;2022-10-15T10:06:05;2.73;;;1.60;;
819;SDS011;392;48.838;2.322;2022-10-15T10:08:46;2.13;;;1.43;;
819;SDS011;392;48.838;2.322;2022-10-15T10:11:19;1.20;;;1.20;;
819;SDS011;392;48.838;2.322;2022-10-15T10:13:52;1.70;;;1.50;;
819;SDS011;392;48.838;2.322;2022-10-15T10:16:22;1.10;;;1.10;;
819;SDS011;392;48.838;2.322;2022-10-15T10:19:00;1.50;;;1.27;;
819;SDS011;392;48.838;2.322;2022-10-15T10:21:33;1.20;;;1.20;;
819;SDS011;392;48.838;2.322;2022-10-15T10:24:20;1.93;;;1.53;;
819;SDS011;392;48.838;2.322;2022-10-15T10:26:54;1.27;;;1.20;;
819;SDS011;392;48.838;2.322;2022-10-15T10:29:23;1.30;;;1.20;;
819;SDS011;392;48.838;2.322;2022-10-15T10:31:52;2.50;;;2.30;;
819;SDS011;392;48.838;2.322;2022-10-15T10:34:26;2.20;;;2.00;;
819;SDS011;392;48.838;2.322;2022-10-15T10:36:58;1.30;;;1.20;;
819;SDS011;392;48.838;2.322;2022-10-15T10:39:31;1.30;;;1.20;;
819;SDS011;392;48.838;2.322;2022-10-15T10:42:01;1.23;;;1.23;;
819;SDS011;392;48.838;2.322;2022-10-15T10:44:32;1.00;;;1.00;;
819;SDS011;392;48.838;2.322;2022-10-15T10:47:09;1.63;;;1.10;;
819;SDS011;392;48.838;2.322;2022-10-15T10:49:40;1.50;;;1.40;;
819;SDS011;392;48.838;2.322;2022-10-15T10:52:18;1.73;;;1.63;;
819;SDS011;392;48.838;2.322;2022-10-15T10:54:51;1.47;;;1.37;;
819;SDS011;392;48.838;2.322;2022-10-15T10:57:26;1.70;;;1.60;;
819;SDS011;392;48.838;2.322;2022-10-15T11:00:05;2.00;;;1.80;;
819;SDS011;392;48.838;2.322;2022-10-15T11:02:38;1.83;;;1.73;;
819;SDS011;392;48.838;2.322;2022-10-15T11:05:08;1.37;;;1.27;;
819;SDS011;392;48.838;2.322;2022-10-15T11:07:40;0.90;;;0.90;;
819;SDS011;392;48.838;2.322;2022-10-15T11:10:17;1.00;;;1.00;;
819;SDS011;392;48.838;2.322;2022-10-15T11:12:57;1.40;;;1.30;;
819;SDS011;392;48.838;2.322;2022-10-15T11:15:44;1.50;;;1.40;;
819;SDS011;392;48.838;2.322;2022-10-15T11:18:26;1.40;;;1.30;;
819;SDS011;392;48.838;2.322;2022-10-15T11:21:09;1.70;;;1.60;;
819;SDS011;392;48.838;2.322;2022-10-15T11:24:07;1.20;;;1.10;;
819;SDS011;392;48.838;2.322;2022-10-15T11:26:47;1.10;;;1.10;;
819;SDS011;392;48.838;2.322;2022-10-15T11:29:41;1.23;;;1.13;;
819;SDS011;392;48.838;2.322;2022-10-15T11:32:22;0.90;;;0.90;;
819;SDS011;392;48.838;2.322;2022-10-15T11:38:02;1.43;;;1.33;;
819;SDS011;392;48.838;2.322;2022-10-15T11:40:43;1.73;;;1.63;;
819;SDS011;392;48.838;2.322;2022-10-15T11:43:30;0.90;;;0.90;;
819;SDS011;392;48.838;2.322;2022-10-15T11:46:11;1.13;;;1.00;;
819;SDS011;392;48.838;2.322;2022-10-15T11:48:49;1.10;;;1.10;;
819;SDS011;392;48.838;2.322;2022-10-15T11:51:30;0.93;;;0.90;;
819;SDS011;392;48.838;2.322;2022-10-15T11:54:25;4.13;;;3.83;;
819;SDS011;392;48.838;2.322;2022-10-15T11:56:59;1.30;;;1.20;;
819;SDS011;392;48.838;2.322;2022-10-15T11:59:30;1.17;;;1.07;;
819;SDS011;392;48.838;2.322;2022-10-15T12:02:04;1.27;;;1.17;;
819;SDS011;392;48.838;2.322;2022-10-15T12:04:39;1.33;;;0.93;;
819;SDS011;392;48.838;2.322;2022-10-15T12:07:12;1.20;;;1.00;;
819;SDS011;392;48.838;2.322;2022-10-15T12:09:47;1.00;;;1.00;;
819;SDS011;392;48.838;2.322;2022-10-15T12:12:24;0.90;;;0.73;;
819;SDS011;392;48.838;2.322;2022-10-15T12:17:54;1.60;;;1.50;;
819;SDS011;392;48.838;2.322;2022-10-15T12:20:29;1.37;;;1.27;;
819;SDS011;392;48.838;2.322;2022-10-15T12:22:59;1.23;;;1.13;;
819;SDS011;392;48.838;2.322;2022-10-15T12:25:38;1.13;;;1.10;;
819;SDS011;392;48.838;2.322;2022-10-15T12:28:14;1.00;;;1.00;;
819;SDS011;392;48.838;2.322;2022-10-15T12:30:57;1.10;;;1.10;;
819;SDS011;392;48.838;2.322;2022-10-15T12:33:34;1.33;;;1.23;;
819;SDS011;392;48.838;2.322;2022-10-15T12:36:22;1.40;;;1.30;;
819;SDS011;392;48.838;2.322;2022-10-15T12:38:55;1.90;;;1.80;;
819;SDS011;392;48.838;2.322;2022-10-15T12:41:34;1.30;;;1.20;;
819;SDS011;392;48.838;2.322;2022-10-15T12:44:07;6.37;;;2.70;;
819;SDS011;392;48.838;2.322;2022-10-15T12:46:44;9.70;;;4.43;;
819;SDS011;392;48.838;2.322;2022-10-15T12:55:31;2.77;;;2.50;;
819;SDS011;392;48.838;2.322;2022-10-15T12:58:10;9.90;;;4.73;;
819;SDS011;392;48.838;2.322;2022-10-15T13:01:04;8.70;;;3.07;;
819;SDS011;392;48.838;2.322;2022-10-15T13:03:42;2.47;;;2.27;;
819;SDS011;392;48.838;2.322;2022-10-15T13:06:22;2.87;;;2.20;;
819;SDS011;392;48.838;2.322;2022-10-15T13:09:02;3.03;;;1.80;;
819;SDS011;392;48.838;2.322;2022-10-15T13:11:54;1.53;;;1.43;;
819;SDS011;392;48.838;2.322;2022-10-15T13:14:25;2.53;;;1.93;;
819;SDS011;392;48.838;2.322;2022-10-15T13:17:00;1.93;;;1.43;;
819;SDS011;392;48.838;2.322;2022-10-15T13:19:31;1.60;;;1.50;;
819;SDS011;392;48.838;2.322;2022-10-15T13:22:04;1.90;;;1.80;;
819;SDS011;392;48.838;2.322;2022-10-15T13:24:45;1.30;;;1.30;;
819;SDS011;392;48.838;2.322;2022-10-15T13:27:19;1.10;;;1.00;;
819;SDS011;392;48.838;2.322;2022-10-15T13:29:54;1.03;;;1.03;;
819;SDS011;392;48.838;2.322;2022-10-15T13:32:25;1.83;;;1.30;;
819;SDS011;392;48.838;2.322;2022-10-15T13:34:56;1.10;;;1.10;;
819;SDS011;392;48.838;2.322;2022-10-15T13:37:28;1.60;;;1.50;;
819;SDS011;392;48.838;2.322;2022-10-15T13:39:58;1.10;;;1.10;;
819;SDS011;392;48.838;2.322;2022-10-15T13:42:27;1.30;;;1.20;;
819;SDS011;392;48.838;2.322;2022-10-15T13:44:57;1.53;;;1.30;;
819;SDS011;392;48.838;2.322;2022-10-15T13:47:31;1.03;;;1.03;;
819;SDS011;392;48.838;2.322;2022-10-15T13:50:12;0.90;;;0.90;;
819;SDS011;392;48.838;2.322;2022-10-15T13:52:46;0.80;;;0.80;;
819;SDS011;392;48.838;2.322;2022-10-15T13:55:19;0.70;;;0.70;;
819;SDS011;392;48.838;2.322;2022-10-15T13:57:57;1.23;;;1.23;;
819;SDS011;392;48.838;2.322;2022-10-15T14:00:28;1.03;;;0.93;;
819;SDS011;392;48.838;2.322;2022-10-15T14:03:12;1.03;;;0.73;;
819;SDS011;392;48.838;2.322;2022-10-15T14:05:42;1.00;;;1.00;;
819;SDS011;392;48.838;2.322;2022-10-15T14:08:22;0.93;;;0.93;;
819;SDS011;392;48.838;2.322;2022-10-15T14:10:53;1.13;;;1.03;;
819;SDS011;392;48.838;2.322;2022-10-15T14:13:23;0.93;;;0.93;;
819;SDS011;392;48.838;2.322;2022-10-15T14:15:52;0.80;;;0.80;;
819;SDS011;392;48.838;2.322;2022-10-15T14:18:29;2.50;;;1.00;;
819;SDS011;392;48.838;2.322;2022-10-15T14:21:00;1.73;;;1.00;;
819;SDS011;392;48.838;2.322;2022-10-15T14:23:27;0.87;;;0.87;;
819;SDS011;392;48.838;2.322;2022-10-15T14:25:57;1.17;;;1.17;;
819;SDS011;392;48.838;2.322;2022-10-15T14:28:27;0.83;;;0.83;;
819;SDS011;392;48.838;2.322;2022-10-15T14:30:57;0.90;;;0.90;;
819;SDS011;392;48.838;2.322;2022-10-15T14:33:31;2.67;;;1.27;;
819;SDS011;392;48.838;2.322;2022-10-15T14:36:08;0.90;;;0.90;;
819;SDS011;392;48.838;2.322;2022-10-15T14:38:50;1.03;;;1.03;;
819;SDS011;392;48.838;2.322;2022-10-15T14:41:24;0.80;;;0.80;;
819;SDS011;392;48.838;2.322;2022-10-15T14:44:01;0.80;;;0.80;;
819;SDS011;392;48.838;2.322;2022-10-15T14:46:44;0.80;;;0.80;;
819;SDS011;392;48.838;2.322;2022-10-15T14:49:19;1.17;;;0.90;;
819;SDS011;392;48.838;2.322;2022-10-15T14:51:52;1.33;;;0.80;;
819;SDS011;392;48.838;2.322;2022-10-15T14:54:32;1.00;;;1.00;;
819;SDS011;392;48.838;2.322;2022-10-15T14:57:04;2.30;;;0.90;;
819;SDS011;392;48.838;2.322;2022-10-15T14:59:42;1.03;;;0.93;;
819;SDS011;392;48.838;2.322;2022-10-15T15:02:12;0.90;;;0.90;;
819;SDS011;392;48.838;2.322;2022-10-15T15:04:44;1.17;;;1.07;;
819;SDS011;392;48.838;2.322;2022-10-15T15:07:18;1.00;;;0.77;;
819;SDS011;392;48.838;2.322;2022-10-15T15:09:47;1.37;;;1.13;;
819;SDS011;392;48.838;2.322;2022-10-15T15:12:18;0.90;;;0.90;;
819;SDS011;392;48.838;2.322;2022-10-15T15:14:48;1.80;;;1.23;;
819;SDS011;392;48.838;2.322;2022-10-15T15:17:17;1.20;;;1.10;;
819;SDS011;392;48.838;2.322;2022-10-15T15:19:48;1.67;;;1.40;;
819;SDS011;392;48.838;2.322;2022-10-15T15:22:17;1.30;;;1.20;;
819;SDS011;392;48.838;2.322;2022-10-15T15:24:52;1.00;;;1.00;;
819;SDS011;392;48.838;2.322;2022-10-15T15:27:21;0.73;;;0.73;;
819;SDS011;392;48.838;2.322;2022-10-15T15:29:51;0.90;;;0.90;;
819;SDS011;392;48.838;2.322;2022-10-15T15:32:20;0.83;;;0.83;;
819;SDS011;392;48.838;2.322;2022-10-15T15:34:50;0.80;;;0.80;;
819;SDS011;392;48.838;2.322;2022-10-15T15:37:20;0.80;;;0.80;;
819;SDS011;392;48.838;2.322;2022-10-15T15:39:49;1.30;;;1.13;;
819;SDS011;392;48.838;2.322;2022-10-15T15:42:19;1.10;;;1.00;;
819;SDS011;392;48.838;2.322;2022-10-15T15:44:48;1.13;;;1.10;;
819;SDS011;392;48.838;2.322;2022-10-15T15:47:16;1.43;;;0.93;;
819;SDS011;392;48.838;2.322;2022-10-15T15:49:44;1.23;;;1.13;;
819;SDS011;392;48.838;2.322;2022-10-15T15:52:13;1.30;;;1.30;;
819;SDS011;392;48.838;2.322;2022-10-15T15:54:43;0.90;;;0.90;;
819;SDS011;392;48.838;2.322;2022-10-15T15:57:10;1.33;;;1.23;;
819;SDS011;392;48.838;2.322;2022-10-15T15:59:38;1.10;;;1.10;;
819;SDS011;392;48.838;2.322;2022-10-15T16:02:06;5.03;;;2.33;;
819;SDS011;392;48.838;2.322;2022-10-15T16:04:35;5.00;;;2.27;;
819;SDS011;392;48.838;2.322;2022-10-15T16:07:03;1.57;;;1.47;;
819;SDS011;392;48.838;2.322;2022-10-15T16:09:32;4.73;;;1.90;;
819;SDS011;392;48.838;2.322;2022-10-15T16:11:59;3.77;;;1.93;;
819;SDS011;392;48.838;2.322;2022-10-15T16:14:27;3.10;;;2.10;;
819;SDS011;392;48.838;2.322;2022-10-15T16:16:56;6.17;;;3.50;;
819;SDS011;392;48.838;2.322;2022-10-15T16:19:24;1.70;;;1.60;;
819;SDS011;392;48.838;2.322;2022-10-15T16:21:52;2.87;;;1.93;;
819;SDS011;392;48.838;2.322;2022-10-15T16:24:20;1.77;;;1.67;;
819;SDS011;392;48.838;2.322;2022-10-15T16:26:48;2.50;;;1.63;;
819;SDS011;392;48.838;2.322;2022-10-15T16:29:16;2.90;;;2.70;;
819;SDS011;392;48.838;2.322;2022-10-15T16:31:43;4.83;;;2.80;;
819;SDS011;392;48.838;2.322;2022-10-15T16:34:10;3.93;;;3.10;;